createdAt,value
2023-02-26T00:02:36.678Z,100479.47
2023-02-26T00:07:40.178Z,100480.34
2023-02-26T00:12:44.128Z,100490.00
2023-02-26T00:17:54.297Z,100489.03
2023-02-26T00:22:58.239Z,100501.41
2023-02-26T00:28:01.642Z,100500.59
2023-02-26T00:33:06.793Z,100509.44
2023-02-26T00:38:14.582Z,100523.59
2023-02-26T00:43:19.306Z,100530.53
2023-02-26T00:48:34.383Z,100540.81
2023-02-26T00:53:45.405Z,100535.50
2023-02-26T00:58:48.200Z,100535.72
2023-02-26T01:03:53.080Z,100554.97
2023-02-26T01:09:05.233Z,100557.34
2023-02-26T01:14:08.889Z,100564.72
2023-02-26T01:19:21.504Z,100567.00
2023-02-26T01:24:26.804Z,100558.88
2023-02-26T01:29:29.962Z,100562.22
2023-02-26T01:34:39.083Z,100575.22
2023-02-26T01:39:48.078Z,100574.47
2023-02-26T01:45:00.511Z,100569.19
2023-02-26T01:50:13.995Z,100575.84
2023-02-26T01:55:20.343Z,100574.59
2023-02-26T02:00:23.538Z,100576.69
2023-02-26T02:05:34.088Z,100584.88
2023-02-26T02:10:36.902Z,100592.19
2023-02-26T02:15:46.724Z,100595.81
2023-02-26T02:21:18.628Z,100605.56
2023-02-26T02:26:43.566Z,100610.94
2023-02-26T02:31:55.213Z,100605.88
2023-02-26T02:37:05.117Z,100613.00
2023-02-26T02:42:17.625Z,100629.72
2023-02-26T02:47:25.175Z,100628.84
2023-02-26T02:52:34.696Z,100631.16
2023-02-26T02:57:41.923Z,100642.69
2023-02-26T03:02:52.049Z,100644.09
2023-02-26T03:07:58.246Z,100639.63
2023-02-26T03:13:01.122Z,100648.31
2023-02-26T03:18:14.172Z,100662.38
2023-02-26T03:23:23.312Z,100672.91
2023-02-26T03:28:37.386Z,100674.72
2023-02-26T03:33:51.462Z,100674.03
2023-02-26T03:38:58.434Z,100688.09
2023-02-26T03:44:08.652Z,100697.97
2023-02-26T03:49:19.668Z,100701.72
2023-02-26T03:54:27.790Z,100708.88
2023-02-26T03:59:47.360Z,100720.31
2023-02-26T04:05:13.431Z,100737.25
2023-02-26T04:10:20.314Z,100745.94
2023-02-26T04:15:23.202Z,100746.16
2023-02-26T04:20:27.560Z,100755.75
2023-02-26T04:25:30.824Z,100753.22
2023-02-26T04:30:35.221Z,100758.44
2023-02-26T04:35:41.201Z,100765.47
2023-02-26T04:40:45.835Z,100777.63
2023-02-26T04:45:50.941Z,100781.00
2023-02-26T04:50:55.304Z,100793.25
2023-02-26T04:55:58.315Z,100790.81
2023-02-26T05:01:01.423Z,100796.22
2023-02-26T05:06:05.943Z,100803.13
2023-02-26T05:11:08.840Z,100806.75
2023-02-26T05:16:12.099Z,100818.00
2023-02-26T05:21:16.448Z,100816.22
2023-02-26T05:26:19.343Z,100824.19
2023-02-26T05:31:22.308Z,100838.28
2023-02-26T05:36:27.035Z,100840.94
2023-02-26T05:41:29.934Z,100849.94
2023-02-26T05:46:32.802Z,100852.56
2023-02-26T05:51:37.010Z,100865.78
2023-02-26T05:56:39.977Z,100872.00
2023-02-26T06:01:43.457Z,100876.53
2023-02-26T06:06:47.729Z,100892.56
2023-02-26T06:11:50.624Z,100897.00
2023-02-26T06:16:53.578Z,100910.09
2023-02-26T06:21:57.762Z,100930.25
2023-02-26T06:27:00.538Z,100932.00
2023-02-26T06:32:03.419Z,100943.34
2023-02-26T06:37:07.802Z,100955.69
2023-02-26T06:42:10.873Z,100964.47
2023-02-26T06:47:13.851Z,100974.03
2023-02-26T06:52:18.190Z,100984.47
2023-02-26T06:57:21.165Z,100991.09
2023-02-26T07:02:24.436Z,100992.28
2023-02-26T07:07:29.447Z,100998.44
2023-02-26T07:12:32.272Z,101004.50
2023-02-26T07:17:35.093Z,101013.31
2023-02-26T07:22:39.364Z,101021.47
2023-02-26T07:27:43.813Z,101020.34
2023-02-26T07:32:46.851Z,101019.84
2023-02-26T07:37:52.192Z,101022.91
2023-02-26T07:42:55.030Z,101033.38
2023-02-26T07:47:57.935Z,101046.38
2023-02-26T07:53:02.151Z,101054.09
2023-02-26T08:03:42.666Z,101067.56
2023-02-26T08:08:46.954Z,101072.59
2023-02-26T08:13:49.774Z,101070.50
2023-02-26T08:18:52.539Z,101086.38
2023-02-26T08:23:56.802Z,101086.94
2023-02-26T08:28:59.704Z,101099.72
2023-02-26T08:34:02.566Z,101110.72
2023-02-26T08:39:07.724Z,101113.63
2023-02-26T08:44:10.460Z,101120.25
2023-02-26T08:49:13.203Z,101126.38
2023-02-26T08:54:17.569Z,101139.75
2023-02-26T08:59:20.529Z,101145.94
2023-02-26T09:04:23.488Z,101156.69
2023-02-26T09:09:27.834Z,101166.44
2023-02-26T09:14:30.631Z,101163.69
2023-02-26T09:19:33.500Z,101170.16
2023-02-26T09:24:37.660Z,101175.00
2023-02-26T09:29:40.498Z,101184.25
2023-02-26T09:34:43.344Z,101194.94
2023-02-26T09:39:47.545Z,101188.94
2023-02-26T09:44:53.716Z,101195.47
2023-02-26T09:50:05.970Z,101189.41
2023-02-26T09:55:18.817Z,101200.72
2023-02-26T10:00:30.280Z,101202.66
2023-02-26T10:05:41.001Z,101216.34
2023-02-26T10:10:51.731Z,101213.69
2023-02-26T10:16:01.520Z,101208.66
2023-02-26T10:21:12.566Z,101209.50
2023-02-26T10:26:21.191Z,101224.56
2023-02-26T10:31:31.437Z,101227.97
2023-02-26T10:36:45.725Z,101224.88
2023-02-26T10:41:52.497Z,101242.41
2023-02-26T10:47:04.047Z,101248.88
2023-02-26T10:52:14.884Z,101251.47
2023-02-26T10:57:24.285Z,101248.25
2023-02-26T11:02:36.238Z,101249.66
2023-02-26T11:07:41.249Z,101244.91
2023-02-26T11:12:45.924Z,101240.25
2023-02-26T11:17:50.253Z,101248.25
2023-02-26T11:22:56.551Z,101234.97
2023-02-26T11:28:03.581Z,101235.59
2023-02-26T11:33:17.538Z,101247.06
2023-02-26T11:38:26.943Z,101242.69
2023-02-26T11:43:39.204Z,101240.09
2023-02-26T11:48:45.170Z,101262.31
2023-02-26T11:53:52.367Z,101261.41
2023-02-26T11:58:56.951Z,101257.72
2023-02-26T12:04:02.144Z,101238.69
2023-02-26T12:09:05.977Z,101236.13
2023-02-26T12:14:23.021Z,101234.78
2023-02-26T12:19:35.415Z,101243.69
2023-02-26T12:24:54.311Z,101251.34
2023-02-26T12:30:11.933Z,101251.31
2023-02-26T12:35:47.321Z,101267.69
2023-02-26T12:41:07.560Z,101248.53
2023-02-26T12:46:24.214Z,101257.63
2023-02-26T12:51:39.558Z,101253.13
2023-02-26T12:56:55.921Z,101263.41
2023-02-26T13:02:33.658Z,101254.63
2023-02-26T13:07:51.352Z,101247.00
2023-02-26T13:13:03.311Z,101256.03
2023-02-26T13:18:12.910Z,101243.59
2023-02-26T13:23:21.507Z,101251.22
2023-02-26T13:28:35.130Z,101262.34
2023-02-26T13:33:40.937Z,101245.34
2023-02-26T13:38:54.936Z,101239.88
2023-02-26T13:44:18.847Z,101240.59
2023-02-26T13:49:27.979Z,101243.41
2023-02-26T13:54:44.187Z,101249.91
2023-02-26T13:59:54.304Z,101255.34
2023-02-26T14:05:01.174Z,101240.69
2023-02-26T14:10:16.650Z,101229.13
2023-02-26T14:15:28.939Z,101230.66
2023-02-26T14:20:35.464Z,101223.69
2023-02-26T14:25:40.343Z,101231.03
2023-02-26T14:30:49.306Z,101246.16
2023-02-26T14:35:55.534Z,101231.66
2023-02-26T14:41:09.955Z,101232.47
2023-02-26T14:46:13.862Z,101242.44
2023-02-26T14:51:28.329Z,101247.78
2023-02-26T14:56:45.688Z,101254.13
2023-02-26T15:01:53.089Z,101232.66
2023-02-26T15:07:09.535Z,101243.09
2023-02-26T15:12:29.379Z,101261.22
2023-02-26T15:17:46.957Z,101256.06
2023-02-26T15:23:09.241Z,101256.72
2023-02-26T15:28:16.522Z,101260.84
2023-02-26T15:33:20.870Z,101267.81
2023-02-26T15:38:25.058Z,101277.59
2023-02-26T15:43:30.041Z,101284.34
2023-02-26T15:48:38.282Z,101280.03
2023-02-26T15:53:45.547Z,101289.44
2023-02-26T15:58:54.845Z,101291.66
2023-02-26T16:03:59.706Z,101296.56
2023-02-26T16:09:06.523Z,101299.25
2023-02-26T16:14:18.066Z,101295.59
2023-02-26T16:19:26.764Z,101306.16
2023-02-26T16:24:32.108Z,101301.47
2023-02-26T16:29:37.108Z,101297.38
2023-02-26T16:34:43.208Z,101304.13
2023-02-26T16:39:47.418Z,101308.53
2023-02-26T16:44:53.325Z,101324.25
2023-02-26T16:49:56.188Z,101320.69
2023-02-26T16:55:05.742Z,101340.63
2023-02-26T17:00:17.738Z,101347.81
2023-02-26T17:05:25.848Z,101359.56
2023-02-26T17:10:34.618Z,101358.44
2023-02-26T17:15:40.756Z,101366.63
2023-02-26T17:20:44.677Z,101374.63
2023-02-26T17:25:54.088Z,101375.63
2023-02-26T17:30:58.448Z,101378.38
2023-02-26T17:36:04.060Z,101380.56
2023-02-26T17:41:08.215Z,101385.41
2023-02-26T17:46:12.702Z,101391.22
2023-02-26T17:51:16.843Z,101391.66
2023-02-26T17:56:27.067Z,101401.44
2023-02-26T18:01:30.565Z,101399.75
2023-02-26T18:06:36.156Z,101413.06
2023-02-26T18:11:41.892Z,101421.00
2023-02-26T18:16:46.733Z,101422.91
2023-02-26T18:21:50.674Z,101424.59
2023-02-26T18:26:54.908Z,101438.16
2023-02-26T18:32:00.434Z,101428.25
2023-02-26T18:37:04.394Z,101432.91
2023-02-26T18:42:15.068Z,101433.00
2023-02-26T18:47:19.028Z,101433.28
2023-02-26T18:52:21.885Z,101428.19
2023-02-26T18:57:26.094Z,101436.25
2023-02-26T19:02:29.120Z,101434.56
2023-02-26T19:07:32.002Z,101433.69
2023-02-26T19:12:36.238Z,101439.00
2023-02-26T19:17:39.538Z,101451.63
2023-02-26T19:22:43.578Z,101452.03
2023-02-26T19:27:47.683Z,101454.34
2023-02-26T19:32:50.719Z,101454.53
2023-02-26T19:37:54.848Z,101459.84
2023-02-26T19:42:59.035Z,101457.41
2023-02-26T19:48:01.855Z,101456.41
2023-02-26T19:53:04.964Z,101465.41
2023-02-26T19:58:09.410Z,101467.41
2023-02-26T20:03:12.253Z,101471.09
2023-02-26T20:08:15.109Z,101474.91
2023-02-26T20:13:19.666Z,101481.19
2023-02-26T20:18:22.467Z,101484.78
2023-02-26T20:23:26.071Z,101493.81
2023-02-26T20:28:30.290Z,101504.53
2023-02-26T20:33:33.414Z,101504.75
2023-02-26T20:38:37.033Z,101511.75
2023-02-26T20:43:41.343Z,101521.34
2023-02-26T20:48:44.799Z,101527.66
2023-02-26T20:53:47.697Z,101524.47
2023-02-26T20:58:51.964Z,101530.88
2023-02-26T21:03:54.841Z,101523.94
2023-02-26T21:08:57.725Z,101525.72
2023-02-26T21:14:03.135Z,101546.13
2023-02-26T21:19:06.008Z,101541.06
2023-02-26T21:24:09.363Z,101545.44
2023-02-26T21:29:13.461Z,101556.94
2023-02-26T21:34:32.591Z,101547.44
2023-02-26T21:39:37.990Z,101548.31
2023-02-26T21:44:42.722Z,101555.50
2023-02-26T21:49:45.764Z,101552.09
2023-02-26T21:54:48.523Z,101549.47
2023-02-26T21:59:52.687Z,101562.75
2023-02-26T22:04:55.490Z,101568.09
2023-02-26T22:09:58.326Z,101565.31
2023-02-26T22:15:02.500Z,101573.19
2023-02-26T22:20:09.754Z,101574.94
2023-02-26T22:25:13.777Z,101576.09
2023-02-26T22:30:18.036Z,101570.75
2023-02-26T22:35:21.045Z,101576.94
2023-02-26T22:40:24.862Z,101584.09
2023-02-26T22:45:29.485Z,101587.69
2023-02-26T22:50:33.139Z,101585.19
2023-02-26T22:55:35.902Z,101590.53
2023-02-26T23:00:41.221Z,101594.22
2023-02-26T23:05:43.915Z,101601.38
2023-02-26T23:10:47.006Z,101602.22
2023-02-26T23:15:51.207Z,101594.44
2023-02-26T23:20:54.255Z,101585.72
2023-02-26T23:25:57.129Z,101600.69
2023-02-26T23:31:01.304Z,101607.03
2023-02-26T23:36:04.040Z,101615.06
2023-02-26T23:41:06.897Z,101617.00
2023-02-26T23:46:11.907Z,101627.63
2023-02-26T23:51:14.783Z,101631.16
2023-02-26T23:56:17.549Z,101634.06
